sensor_id;sensor_type;location;lat;lon;timestamp;temperature;humidity
57833;DHT22;43667;53.036;6.740;2022-12-15T00:02:19;-3.80;99.90
57833;DHT22;43667;53.036;6.740;2022-12-15T00:05:04;-3.80;99.90
57833;DHT22;43667;53.036;6.740;2022-12-15T00:07:48;-3.80;99.90
57833;DHT22;43667;53.036;6.740;2022-12-15T00:10:33;-3.70;99.90
57833;DHT22;43667;53.036;6.740;2022-12-15T00:13:17;-3.70;99.90
57833;DHT22;43667;53.036;6.740;2022-12-15T00:16:01;-3.70;99.90
57833;DHT22;43667;53.036;6.740;2022-12-15T00:18:45;-3.60;99.90
57833;DHT22;43667;53.036;6.740;2022-12-15T00:21:29;-3.60;99.90
57833;DHT22;43667;53.036;6.740;2022-12-15T00:24:14;-3.60;99.90
57833;DHT22;43667;53.036;6.740;2022-12-15T00:26:58;-3.50;99.90
57833;DHT22;43667;53.036;6.740;2022-12-15T00:29:42;-3.50;99.90
57833;DHT22;43667;53.036;6.740;2022-12-15T00:32:26;-3.40;99.90
57833;DHT22;43667;53.036;6.740;2022-12-15T00:35:10;-3.30;99.90
57833;DHT22;43667;53.036;6.740;2022-12-15T00:37:54;-3.20;99.90
57833;DHT22;43667;53.036;6.740;2022-12-15T00:40:38;-3.10;99.90
57833;DHT22;43667;53.036;6.740;2022-12-15T00:43:04;-3.10;99.90
57833;DHT22;43667;53.036;6.740;2022-12-15T00:45:29;-3.10;99.90
57833;DHT22;43667;53.036;6.740;2022-12-15T00:48:13;-3.20;99.90
57833;DHT22;43667;53.036;6.740;2022-12-15T00:50:40;-3.10;99.90
57833;DHT22;43667;53.036;6.740;2022-12-15T00:53:22;-3.10;99.90
57833;DHT22;43667;53.036;6.740;2022-12-15T00:56:08;-3.10;99.90
57833;DHT22;43667;53.036;6.740;2022-12-15T00:58:53;-3.10;99.90
57833;DHT22;43667;53.036;6.740;2022-12-15T01:01:38;-3.10;99.90
57833;DHT22;43667;53.036;6.740;2022-12-15T01:04:22;-3.20;99.90
57833;DHT22;43667;53.036;6.740;2022-12-15T01:07:06;-3.20;99.90
57833;DHT22;43667;53.036;6.740;2022-12-15T01:09:50;-3.20;99.90
57833;DHT22;43667;53.036;6.740;2022-12-15T01:12:34;-3.30;99.90
57833;DHT22;43667;53.036;6.740;2022-12-15T01:15:18;-3.30;99.90
57833;DHT22;43667;53.036;6.740;2022-12-15T01:18:03;-3.30;99.90
57833;DHT22;43667;53.036;6.740;2022-12-15T01:21:08;-3.30;99.90
57833;DHT22;43667;53.036;6.740;2022-12-15T01:23:35;-3.30;99.90
57833;DHT22;43667;53.036;6.740;2022-12-15T01:26:01;-3.30;99.90
57833;DHT22;43667;53.036;6.740;2022-12-15T01:28:27;-3.30;99.90
57833;DHT22;43667;53.036;6.740;2022-12-15T01:30:53;-3.40;99.90
57833;DHT22;43667;53.036;6.740;2022-12-15T01:33:19;-3.40;99.90
57833;DHT22;43667;53.036;6.740;2022-12-15T01:35:48;-3.40;99.90
57833;DHT22;43667;53.036;6.740;2022-12-15T01:38:18;-3.40;99.90
57833;DHT22;43667;53.036;6.740;2022-12-15T01:40:51;-3.40;99.90
57833;DHT22;43667;53.036;6.740;2022-12-15T01:43:23;-3.40;99.90
57833;DHT22;43667;53.036;6.740;2022-12-15T01:45:56;-3.40;99.90
57833;DHT22;43667;53.036;6.740;2022-12-15T01:51:14;-3.20;99.90
57833;DHT22;43667;53.036;6.740;2022-12-15T01:56:19;-3.00;99.90
57833;DHT22;43667;53.036;6.740;2022-12-15T01:58:48;-2.90;99.90
57833;DHT22;43667;53.036;6.740;2022-12-15T02:01:14;-2.80;99.90
57833;DHT22;43667;53.036;6.740;2022-12-15T02:03:40;-2.70;99.90
57833;DHT22;43667;53.036;6.740;2022-12-15T02:06:08;-2.60;99.90
57833;DHT22;43667;53.036;6.740;2022-12-15T02:08:35;-2.50;99.90
57833;DHT22;43667;53.036;6.740;2022-12-15T02:11:56;-2.50;99.90
57833;DHT22;43667;53.036;6.740;2022-12-15T02:14:03;-2.50;99.90
57833;DHT22;43667;53.036;6.740;2022-12-15T02:19:20;-2.60;99.90
57833;DHT22;43667;53.036;6.740;2022-12-15T02:24:48;-2.60;99.90
57833;DHT22;43667;53.036;6.740;2022-12-15T02:27:57;-2.70;99.90
57833;DHT22;43667;53.036;6.740;2022-12-15T02:30:43;-2.70;99.90
57833;DHT22;43667;53.036;6.740;2022-12-15T02:33:20;-2.80;99.90
57833;DHT22;43667;53.036;6.740;2022-12-15T02:35:57;-2.80;99.90
57833;DHT22;43667;53.036;6.740;2022-12-15T02:38:42;-2.80;99.90
57833;DHT22;43667;53.036;6.740;2022-12-15T02:41:33;-2.90;99.90
57833;DHT22;43667;53.036;6.740;2022-12-15T02:44:00;-2.90;99.90
57833;DHT22;43667;53.036;6.740;2022-12-15T02:46:37;-2.90;99.90
57833;DHT22;43667;53.036;6.740;2022-12-15T02:52:14;-3.10;99.90
57833;DHT22;43667;53.036;6.740;2022-12-15T02:58:00;-3.30;99.90
57833;DHT22;43667;53.036;6.740;2022-12-15T03:00:28;-3.20;99.90
57833;DHT22;43667;53.036;6.740;2022-12-15T03:02:55;-3.20;99.90
57833;DHT22;43667;53.036;6.740;2022-12-15T03:05:22;-3.20;99.90
57833;DHT22;43667;53.036;6.740;2022-12-15T03:07:50;-3.20;99.90
57833;DHT22;43667;53.036;6.740;2022-12-15T03:10:17;-3.10;99.90
57833;DHT22;43667;53.036;6.740;2022-12-15T03:12:44;-3.10;99.90
57833;DHT22;43667;53.036;6.740;2022-12-15T03:15:10;-3.10;99.90
57833;DHT22;43667;53.036;6.740;2022-12-15T03:17:36;-3.10;99.90
57833;DHT22;43667;53.036;6.740;2022-12-15T03:20:03;-3.10;99.90
57833;DHT22;43667;53.036;6.740;2022-12-15T03:22:29;-3.10;99.90
57833;DHT22;43667;53.036;6.740;2022-12-15T03:24:54;-3.00;99.90
57833;DHT22;43667;53.036;6.740;2022-12-15T03:27:20;-3.00;99.90
57833;DHT22;43667;53.036;6.740;2022-12-15T03:29:46;-3.00;99.90
57833;DHT22;43667;53.036;6.740;2022-12-15T03:32:12;-3.00;99.90
57833;DHT22;43667;53.036;6.740;2022-12-15T03:34:37;-3.00;99.90
57833;DHT22;43667;53.036;6.740;2022-12-15T03:37:03;-3.10;99.90
57833;DHT22;43667;53.036;6.740;2022-12-15T03:39:28;-3.10;99.90
57833;DHT22;43667;53.036;6.740;2022-12-15T03:41:54;-3.20;99.90
57833;DHT22;43667;53.036;6.740;2022-12-15T03:44:20;-3.10;99.90
57833;DHT22;43667;53.036;6.740;2022-12-15T03:46:46;-3.20;99.90
57833;DHT22;43667;53.036;6.740;2022-12-15T03:49:11;-3.20;99.90
57833;DHT22;43667;53.036;6.740;2022-12-15T03:51:37;-3.20;99.90
57833;DHT22;43667;53.036;6.740;2022-12-15T03:54:03;-3.20;99.90
57833;DHT22;43667;53.036;6.740;2022-12-15T03:56:28;-3.20;99.90
57833;DHT22;43667;53.036;6.740;2022-12-15T03:58:54;-3.30;99.90
57833;DHT22;43667;53.036;6.740;2022-12-15T04:03:45;-3.40;99.90
57833;DHT22;43667;53.036;6.740;2022-12-15T04:06:11;-3.40;99.90
57833;DHT22;43667;53.036;6.740;2022-12-15T04:08:36;-3.40;99.90
57833;DHT22;43667;53.036;6.740;2022-12-15T04:11:02;-3.40;99.90
57833;DHT22;43667;53.036;6.740;2022-12-15T04:13:28;-3.30;99.90
57833;DHT22;43667;53.036;6.740;2022-12-15T04:15:53;-3.30;99.90
57833;DHT22;43667;53.036;6.740;2022-12-15T04:18:19;-3.20;99.90
57833;DHT22;43667;53.036;6.740;2022-12-15T04:20:44;-3.10;99.90
57833;DHT22;43667;53.036;6.740;2022-12-15T04:23:10;-3.10;99.90
57833;DHT22;43667;53.036;6.740;2022-12-15T04:25:36;-3.10;99.90
57833;DHT22;43667;53.036;6.740;2022-12-15T04:28:20;-3.10;99.90
57833;DHT22;43667;53.036;6.740;2022-12-15T04:31:10;-3.10;99.90
57833;DHT22;43667;53.036;6.740;2022-12-15T04:33:57;-3.20;99.90
57833;DHT22;43667;53.036;6.740;2022-12-15T04:36:43;-3.20;99.90
57833;DHT22;43667;53.036;6.740;2022-12-15T04:39:28;-3.20;99.90
57833;DHT22;43667;53.036;6.740;2022-12-15T04:42:13;-3.20;99.90
57833;DHT22;43667;53.036;6.740;2022-12-15T04:45:01;-3.20;99.90
57833;DHT22;43667;53.036;6.740;2022-12-15T04:47:46;-3.20;99.90
57833;DHT22;43667;53.036;6.740;2022-12-15T04:50:30;-3.20;99.90
57833;DHT22;43667;53.036;6.740;2022-12-15T04:53:16;-3.20;99.90
57833;DHT22;43667;53.036;6.740;2022-12-15T04:56:01;-3.20;99.90
57833;DHT22;43667;53.036;6.740;2022-12-15T04:58:46;-3.30;99.90
57833;DHT22;43667;53.036;6.740;2022-12-15T05:01:31;-3.20;99.90
57833;DHT22;43667;53.036;6.740;2022-12-15T05:04:15;-3.20;99.90
57833;DHT22;43667;53.036;6.740;2022-12-15T05:06:59;-3.20;99.90
57833;DHT22;43667;53.036;6.740;2022-12-15T05:09:43;-3.10;99.90
57833;DHT22;43667;53.036;6.740;2022-12-15T05:12:27;-3.20;99.90
57833;DHT22;43667;53.036;6.740;2022-12-15T05:15:11;-3.20;99.90
57833;DHT22;43667;53.036;6.740;2022-12-15T05:17:56;-3.20;99.90
57833;DHT22;43667;53.036;6.740;2022-12-15T05:20:40;-3.10;99.90
57833;DHT22;43667;53.036;6.740;2022-12-15T05:23:24;-3.10;99.90
57833;DHT22;43667;53.036;6.740;2022-12-15T05:26:08;-3.20;99.90
57833;DHT22;43667;53.036;6.740;2022-12-15T05:28:52;-3.20;99.90
57833;DHT22;43667;53.036;6.740;2022-12-15T05:31:37;-3.20;99.90
57833;DHT22;43667;53.036;6.740;2022-12-15T05:34:24;-3.20;99.90
57833;DHT22;43667;53.036;6.740;2022-12-15T05:36:51;-3.20;99.90
57833;DHT22;43667;53.036;6.740;2022-12-15T05:39:17;-3.20;99.90
57833;DHT22;43667;53.036;6.740;2022-12-15T05:41:43;-3.20;99.90
57833;DHT22;43667;53.036;6.740;2022-12-15T05:44:09;-3.20;99.90
57833;DHT22;43667;53.036;6.740;2022-12-15T05:46:35;-3.20;99.90
57833;DHT22;43667;53.036;6.740;2022-12-15T05:49:05;-3.20;99.90
57833;DHT22;43667;53.036;6.740;2022-12-15T05:51:31;-3.20;99.90
57833;DHT22;43667;53.036;6.740;2022-12-15T05:53:57;-3.20;99.90
57833;DHT22;43667;53.036;6.740;2022-12-15T05:56:24;-3.30;99.90
57833;DHT22;43667;53.036;6.740;2022-12-15T05:58:50;-3.30;99.90
57833;DHT22;43667;53.036;6.740;2022-12-15T06:01:17;-3.30;99.90
57833;DHT22;43667;53.036;6.740;2022-12-15T06:03:43;-3.30;99.90
57833;DHT22;43667;53.036;6.740;2022-12-15T06:06:10;-3.20;99.90
57833;DHT22;43667;53.036;6.740;2022-12-15T06:08:39;-3.30;99.90
57833;DHT22;43667;53.036;6.740;2022-12-15T06:11:05;-3.20;99.90
57833;DHT22;43667;53.036;6.740;2022-12-15T06:13:32;-3.30;99.90
57833;DHT22;43667;53.036;6.740;2022-12-15T06:18:29;-3.20;99.90
57833;DHT22;43667;53.036;6.740;2022-12-15T06:21:09;-3.20;99.90
57833;DHT22;43667;53.036;6.740;2022-12-15T06:23:35;-3.10;99.90
57833;DHT22;43667;53.036;6.740;2022-12-15T06:26:14;-3.10;99.90
57833;DHT22;43667;53.036;6.740;2022-12-15T06:28:41;-3.10;99.90
57833;DHT22;43667;53.036;6.740;2022-12-15T06:31:09;-3.00;99.90
57833;DHT22;43667;53.036;6.740;2022-12-15T06:33:36;-3.00;99.90
57833;DHT22;43667;53.036;6.740;2022-12-15T06:36:11;-3.00;99.90
57833;DHT22;43667;53.036;6.740;2022-12-15T06:38:37;-3.10;99.90
57833;DHT22;43667;53.036;6.740;2022-12-15T06:41:04;-3.10;99.90
57833;DHT22;43667;53.036;6.740;2022-12-15T06:43:30;-3.10;99.90
57833;DHT22;43667;53.036;6.740;2022-12-15T06:45:58;-3.10;99.90
57833;DHT22;43667;53.036;6.740;2022-12-15T06:48:24;-3.10;99.90
57833;DHT22;43667;53.036;6.740;2022-12-15T06:50:51;-3.10;99.90
57833;DHT22;43667;53.036;6.740;2022-12-15T06:53:18;-3.10;99.90
57833;DHT22;43667;53.036;6.740;2022-12-15T06:55:44;-3.00;99.90
57833;DHT22;43667;53.036;6.740;2022-12-15T06:58:11;-3.00;99.90
57833;DHT22;43667;53.036;6.740;2022-12-15T07:00:37;-2.90;99.90
57833;DHT22;43667;53.036;6.740;2022-12-15T07:03:06;-2.90;99.90
57833;DHT22;43667;53.036;6.740;2022-12-15T07:05:32;-2.80;99.90
57833;DHT22;43667;53.036;6.740;2022-12-15T07:07:57;-2.80;99.90
57833;DHT22;43667;53.036;6.740;2022-12-15T07:10:23;-2.90;99.90
57833;DHT22;43667;53.036;6.740;2022-12-15T07:12:49;-2.90;99.90
57833;DHT22;43667;53.036;6.740;2022-12-15T07:15:15;-2.90;99.90
57833;DHT22;43667;53.036;6.740;2022-12-15T07:17:41;-3.00;99.90
57833;DHT22;43667;53.036;6.740;2022-12-15T07:20:07;-3.00;99.90
57833;DHT22;43667;53.036;6.740;2022-12-15T07:22:33;-3.00;99.90
57833;DHT22;43667;53.036;6.740;2022-12-15T07:24:58;-3.00;99.90
57833;DHT22;43667;53.036;6.740;2022-12-15T07:27:24;-3.00;99.90
57833;DHT22;43667;53.036;6.740;2022-12-15T07:29:50;-3.00;99.90
57833;DHT22;43667;53.036;6.740;2022-12-15T07:32:17;-3.00;99.90
57833;DHT22;43667;53.036;6.740;2022-12-15T07:34:43;-3.00;99.90
57833;DHT22;43667;53.036;6.740;2022-12-15T07:37:08;-2.90;99.90
57833;DHT22;43667;53.036;6.740;2022-12-15T07:39:34;-2.90;99.90
57833;DHT22;43667;53.036;6.740;2022-12-15T07:42:00;-2.80;99.90
57833;DHT22;43667;53.036;6.740;2022-12-15T07:44:26;-2.80;99.90
57833;DHT22;43667;53.036;6.740;2022-12-15T07:46:53;-2.80;99.90
57833;DHT22;43667;53.036;6.740;2022-12-15T07:49:19;-2.80;99.90
57833;DHT22;43667;53.036;6.740;2022-12-15T07:51:44;-2.80;99.90
57833;DHT22;43667;53.036;6.740;2022-12-15T07:54:11;-2.80;99.90
57833;DHT22;43667;53.036;6.740;2022-12-15T07:56:38;-2.80;99.90
57833;DHT22;43667;53.036;6.740;2022-12-15T07:59:04;-2.80;99.90
57833;DHT22;43667;53.036;6.740;2022-12-15T08:01:30;-2.80;99.90
57833;DHT22;43667;53.036;6.740;2022-12-15T08:03:56;-2.70;99.90
57833;DHT22;43667;53.036;6.740;2022-12-15T08:06:21;-2.70;99.90
57833;DHT22;43667;53.036;6.740;2022-12-15T08:08:47;-2.70;99.90
57833;DHT22;43667;53.036;6.740;2022-12-15T08:11:14;-2.70;99.90
57833;DHT22;43667;53.036;6.740;2022-12-15T08:13:41;-2.60;99.90
57833;DHT22;43667;53.036;6.740;2022-12-15T08:16:08;-2.60;99.90
57833;DHT22;43667;53.036;6.740;2022-12-15T08:18:34;-2.60;99.90
57833;DHT22;43667;53.036;6.740;2022-12-15T08:21:04;-2.60;99.90
57833;DHT22;43667;53.036;6.740;2022-12-15T08:23:31;-2.50;99.90
57833;DHT22;43667;53.036;6.740;2022-12-15T08:26:11;-2.40;99.90
57833;DHT22;43667;53.036;6.740;2022-12-15T08:28:38;-2.40;99.90
57833;DHT22;43667;53.036;6.740;2022-12-15T08:31:06;-2.30;99.90
57833;DHT22;43667;53.036;6.740;2022-12-15T08:33:32;-2.30;99.90
57833;DHT22;43667;53.036;6.740;2022-12-15T08:36:04;-2.30;99.90
57833;DHT22;43667;53.036;6.740;2022-12-15T08:38:31;-2.30;99.90
57833;DHT22;43667;53.036;6.740;2022-12-15T08:40:57;-2.20;99.90
57833;DHT22;43667;53.036;6.740;2022-12-15T08:43:23;-2.20;99.90
57833;DHT22;43667;53.036;6.740;2022-12-15T08:45:48;-2.20;99.90
57833;DHT22;43667;53.036;6.740;2022-12-15T08:48:14;-2.20;99.90
57833;DHT22;43667;53.036;6.740;2022-12-15T08:50:44;-2.20;99.90
57833;DHT22;43667;53.036;6.740;2022-12-15T08:53:10;-2.10;99.90
57833;DHT22;43667;53.036;6.740;2022-12-15T08:55:36;-2.10;99.90
57833;DHT22;43667;53.036;6.740;2022-12-15T08:58:02;-2.10;99.90
57833;DHT22;43667;53.036;6.740;2022-12-15T09:00:28;-2.10;99.90
57833;DHT22;43667;53.036;6.740;2022-12-15T09:02:53;-2.00;99.90
57833;DHT22;43667;53.036;6.740;2022-12-15T09:05:19;-2.00;99.90
57833;DHT22;43667;53.036;6.740;2022-12-15T09:07:44;-2.00;99.90
57833;DHT22;43667;53.036;6.740;2022-12-15T09:10:10;-1.90;99.90
57833;DHT22;43667;53.036;6.740;2022-12-15T09:12:35;-1.90;99.90
57833;DHT22;43667;53.036;6.740;2022-12-15T09:15:01;-1.80;99.90
57833;DHT22;43667;53.036;6.740;2022-12-15T09:17:27;-1.80;99.90
57833;DHT22;43667;53.036;6.740;2022-12-15T09:19:52;-1.80;99.90
57833;DHT22;43667;53.036;6.740;2022-12-15T09:22:18;-1.70;99.90
57833;DHT22;43667;53.036;6.740;2022-12-15T09:24:44;-1.70;99.90
57833;DHT22;43667;53.036;6.740;2022-12-15T09:27:09;-1.60;99.90
57833;DHT22;43667;53.036;6.740;2022-12-15T09:29:35;-1.60;99.90
57833;DHT22;43667;53.036;6.740;2022-12-15T09:32:01;-1.50;99.90
57833;DHT22;43667;53.036;6.740;2022-12-15T09:34:27;-1.50;99.90
57833;DHT22;43667;53.036;6.740;2022-12-15T09:36:53;-1.40;99.90
57833;DHT22;43667;53.036;6.740;2022-12-15T09:39:19;-1.40;99.90
57833;DHT22;43667;53.036;6.740;2022-12-15T09:41:54;-1.40;99.90
57833;DHT22;43667;53.036;6.740;2022-12-15T09:44:23;-1.40;99.90
57833;DHT22;43667;53.036;6.740;2022-12-15T09:49:56;-1.10;99.90
57833;DHT22;43667;53.036;6.740;2022-12-15T09:52:33;-1.00;99.90
57833;DHT22;43667;53.036;6.740;2022-12-15T09:55:00;-0.80;99.90
57833;DHT22;43667;53.036;6.740;2022-12-15T09:57:41;-0.70;99.90
57833;DHT22;43667;53.036;6.740;2022-12-15T10:00:16;-0.60;99.90
57833;DHT22;43667;53.036;6.740;2022-12-15T10:03:26;-0.50;99.90
57833;DHT22;43667;53.036;6.740;2022-12-15T10:06:06;-0.40;99.90
57833;DHT22;43667;53.036;6.740;2022-12-15T10:08:47;-0.30;99.90
57833;DHT22;43667;53.036;6.740;2022-12-15T10:11:39;-0.20;99.90
57833;DHT22;43667;53.036;6.740;2022-12-15T10:16:54;-0.10;99.90
57833;DHT22;43667;53.036;6.740;2022-12-15T10:19:44;0.00;99.90
57833;DHT22;43667;53.036;6.740;2022-12-15T10:22:15;0.00;99.90
57833;DHT22;43667;53.036;6.740;2022-12-15T10:24:40;0.00;99.90
57833;DHT22;43667;53.036;6.740;2022-12-15T10:29:46;0.10;99.90
57833;DHT22;43667;53.036;6.740;2022-12-15T10:32:29;0.10;99.90
57833;DHT22;43667;53.036;6.740;2022-12-15T10:34:56;0.20;99.90
57833;DHT22;43667;53.036;6.740;2022-12-15T10:37:22;0.20;99.90
57833;DHT22;43667;53.036;6.740;2022-12-15T10:39:49;0.20;99.90
57833;DHT22;43667;53.036;6.740;2022-12-15T10:42:21;0.20;99.90
57833;DHT22;43667;53.036;6.740;2022-12-15T10:44:50;0.20;99.90
57833;DHT22;43667;53.036;6.740;2022-12-15T10:47:25;0.20;99.90
57833;DHT22;43667;53.036;6.740;2022-12-15T10:49:52;0.20;99.90
57833;DHT22;43667;53.036;6.740;2022-12-15T10:52:31;0.20;99.90
57833;DHT22;43667;53.036;6.740;2022-12-15T10:54:58;0.30;99.90
57833;DHT22;43667;53.036;6.740;2022-12-15T10:57:26;0.30;99.90
57833;DHT22;43667;53.036;6.740;2022-12-15T10:59:53;0.30;99.90
57833;DHT22;43667;53.036;6.740;2022-12-15T11:07:23;0.40;99.90
57833;DHT22;43667;53.036;6.740;2022-12-15T11:09:58;0.40;99.90
57833;DHT22;43667;53.036;6.740;2022-12-15T11:12:27;0.50;99.90
57833;DHT22;43667;53.036;6.740;2022-12-15T11:18:03;0.60;99.90
57833;DHT22;43667;53.036;6.740;2022-12-15T11:20:36;0.60;99.90
57833;DHT22;43667;53.036;6.740;2022-12-15T11:28:31;0.70;99.90
57833;DHT22;43667;53.036;6.740;2022-12-15T11:31:27;0.80;99.90
57833;DHT22;43667;53.036;6.740;2022-12-15T11:33:54;0.90;99.90
57833;DHT22;43667;53.036;6.740;2022-12-15T11:36:52;0.90;99.90
57833;DHT22;43667;53.036;6.740;2022-12-15T11:42:06;1.10;99.90
57833;DHT22;43667;53.036;6.740;2022-12-15T11:50:18;1.20;99.90
57833;DHT22;43667;53.036;6.740;2022-12-15T11:53:16;1.30;99.90
57833;DHT22;43667;53.036;6.740;2022-12-15T12:07:06;1.40;99.90
57833;DHT22;43667;53.036;6.740;2022-12-15T12:10:42;1.40;99.90
57833;DHT22;43667;53.036;6.740;2022-12-15T12:12:41;1.40;99.90
57833;DHT22;43667;53.036;6.740;2022-12-15T12:15:27;1.40;99.90
57833;DHT22;43667;53.036;6.740;2022-12-15T12:18:13;1.40;99.90
57833;DHT22;43667;53.036;6.740;2022-12-15T12:20:50;1.40;99.90
57833;DHT22;43667;53.036;6.740;2022-12-15T12:23:22;1.40;99.90
57833;DHT22;43667;53.036;6.740;2022-12-15T12:29:10;1.40;99.90
57833;DHT22;43667;53.036;6.740;2022-12-15T12:34:45;1.40;99.90
57833;DHT22;43667;53.036;6.740;2022-12-15T12:40:04;1.50;99.90
57833;DHT22;43667;53.036;6.740;2022-12-15T12:42:40;1.50;99.90
57833;DHT22;43667;53.036;6.740;2022-12-15T12:45:11;1.50;99.90
57833;DHT22;43667;53.036;6.740;2022-12-15T12:47:40;1.60;99.90
57833;DHT22;43667;53.036;6.740;2022-12-15T12:52:58;1.50;99.90
57833;DHT22;43667;53.036;6.740;2022-12-15T12:55:28;1.50;99.90
57833;DHT22;43667;53.036;6.740;2022-12-15T12:57:59;1.50;99.90
57833;DHT22;43667;53.036;6.740;2022-12-15T13:00:27;1.50;99.90
57833;DHT22;43667;53.036;6.740;2022-12-15T13:02:55;1.50;99.90
57833;DHT22;43667;53.036;6.740;2022-12-15T13:05:34;1.50;99.90
57833;DHT22;43667;53.036;6.740;2022-12-15T13:10:31;1.50;99.90
57833;DHT22;43667;53.036;6.740;2022-12-15T13:13:14;1.50;99.90
57833;DHT22;43667;53.036;6.740;2022-12-15T13:15:43;1.60;99.90
57833;DHT22;43667;53.036;6.740;2022-12-15T13:18:19;1.60;99.90
57833;DHT22;43667;53.036;6.740;2022-12-15T13:20:47;1.60;99.90
57833;DHT22;43667;53.036;6.740;2022-12-15T13:47:05;1.70;99.90
57833;DHT22;43667;53.036;6.740;2022-12-15T13:49:37;1.80;99.90
57833;DHT22;43667;53.036;6.740;2022-12-15T13:52:13;1.80;99.90
57833;DHT22;43667;53.036;6.740;2022-12-15T13:54:47;1.70;99.90
57833;DHT22;43667;53.036;6.740;2022-12-15T13:57:16;1.70;99.90
57833;DHT22;43667;53.036;6.740;2022-12-15T13:59:46;1.60;99.90
57833;DHT22;43667;53.036;6.740;2022-12-15T14:07:42;1.60;99.90
57833;DHT22;43667;53.036;6.740;2022-12-15T14:10:38;1.50;99.90
57833;DHT22;43667;53.036;6.740;2022-12-15T14:13:25;1.50;99.90
57833;DHT22;43667;53.036;6.740;2022-12-15T14:15:58;1.50;99.90
57833;DHT22;43667;53.036;6.740;2022-12-15T14:18:36;1.50;99.90
57833;DHT22;43667;53.036;6.740;2022-12-15T14:21:23;1.40;99.90
57833;DHT22;43667;53.036;6.740;2022-12-15T14:23:51;1.40;99.90
57833;DHT22;43667;53.036;6.740;2022-12-15T14:26:17;1.40;99.90
57833;DHT22;43667;53.036;6.740;2022-12-15T14:28:46;1.40;99.90
57833;DHT22;43667;53.036;6.740;2022-12-15T14:31:21;1.30;99.90
57833;DHT22;43667;53.036;6.740;2022-12-15T14:33:52;1.30;99.90
57833;DHT22;43667;53.036;6.740;2022-12-15T14:36:23;1.30;99.90
57833;DHT22;43667;53.036;6.740;2022-12-15T14:38:54;1.30;99.90
57833;DHT22;43667;53.036;6.740;2022-12-15T14:41:27;1.30;99.90
57833;DHT22;43667;53.036;6.740;2022-12-15T14:44:05;1.20;99.90
57833;DHT22;43667;53.036;6.740;2022-12-15T14:46:32;1.10;99.90
57833;DHT22;43667;53.036;6.740;2022-12-15T14:49:03;1.10;99.90
57833;DHT22;43667;53.036;6.740;2022-12-15T14:51:37;1.00;99.90
57833;DHT22;43667;53.036;6.740;2022-12-15T14:54:04;1.00;99.90
57833;DHT22;43667;53.036;6.740;2022-12-15T14:56:30;0.90;99.90
57833;DHT22;43667;53.036;6.740;2022-12-15T14:59:17;0.90;99.90
57833;DHT22;43667;53.036;6.740;2022-12-15T15:01:52;0.90;99.90
57833;DHT22;43667;53.036;6.740;2022-12-15T15:06:56;0.80;99.90
57833;DHT22;43667;53.036;6.740;2022-12-15T15:09:28;0.70;99.90
57833;DHT22;43667;53.036;6.740;2022-12-15T15:12:07;0.70;99.90
57833;DHT22;43667;53.036;6.740;2022-12-15T15:14:46;0.70;99.90
57833;DHT22;43667;53.036;6.740;2022-12-15T15:19:44;0.60;99.90
57833;DHT22;43667;53.036;6.740;2022-12-15T15:24:57;0.60;99.90
57833;DHT22;43667;53.036;6.740;2022-12-15T15:30:20;0.50;99.90
57833;DHT22;43667;53.036;6.740;2022-12-15T15:32:57;0.50;99.90
57833;DHT22;43667;53.036;6.740;2022-12-15T15:35:28;0.50;99.90
57833;DHT22;43667;53.036;6.740;2022-12-15T15:38:03;0.40;99.90
57833;DHT22;43667;53.036;6.740;2022-12-15T15:40:29;0.40;99.90
57833;DHT22;43667;53.036;6.740;2022-12-15T15:42:55;0.40;99.90
57833;DHT22;43667;53.036;6.740;2022-12-15T15:45:21;0.40;99.90
57833;DHT22;43667;53.036;6.740;2022-12-15T15:47:48;0.40;99.90
57833;DHT22;43667;53.036;6.740;2022-12-15T15:50:24;0.30;99.90
57833;DHT22;43667;53.036;6.740;2022-12-15T15:52:51;0.30;99.90
57833;DHT22;43667;53.036;6.740;2022-12-15T15:55:25;0.30;99.90
57833;DHT22;43667;53.036;6.740;2022-12-15T15:57:51;0.30;99.90
57833;DHT22;43667;53.036;6.740;2022-12-15T16:00:22;0.30;99.90
57833;DHT22;43667;53.036;6.740;2022-12-15T16:02:49;0.30;99.90
57833;DHT22;43667;53.036;6.740;2022-12-15T16:05:14;0.40;99.90
57833;DHT22;43667;53.036;6.740;2022-12-15T16:07:41;0.40;99.90
57833;DHT22;43667;53.036;6.740;2022-12-15T16:10:12;0.30;99.90
57833;DHT22;43667;53.036;6.740;2022-12-15T16:12:45;0.30;99.90
57833;DHT22;43667;53.036;6.740;2022-12-15T16:15:14;0.20;99.90
57833;DHT22;43667;53.036;6.740;2022-12-15T16:17:40;0.10;99.90
57833;DHT22;43667;53.036;6.740;2022-12-15T16:20:07;0.10;99.90
57833;DHT22;43667;53.036;6.740;2022-12-15T16:22:33;0.10;99.90
57833;DHT22;43667;53.036;6.740;2022-12-15T16:24:58;0.00;99.90
57833;DHT22;43667;53.036;6.740;2022-12-15T16:27:24;0.00;99.90
57833;DHT22;43667;53.036;6.740;2022-12-15T16:29:49;-0.10;99.90
57833;DHT22;43667;53.036;6.740;2022-12-15T16:32:15;-0.10;99.90
57833;DHT22;43667;53.036;6.740;2022-12-15T16:34:40;-0.10;99.90
57833;DHT22;43667;53.036;6.740;2022-12-15T16:37:26;-0.10;99.90
57833;DHT22;43667;53.036;6.740;2022-12-15T16:39:52;-0.10;99.90
57833;DHT22;43667;53.036;6.740;2022-12-15T16:42:18;-0.20;99.90
57833;DHT22;43667;53.036;6.740;2022-12-15T16:44:43;-0.20;99.90
57833;DHT22;43667;53.036;6.740;2022-12-15T16:47:09;-0.20;99.90
57833;DHT22;43667;53.036;6.740;2022-12-15T16:49:34;-0.20;99.90
57833;DHT22;43667;53.036;6.740;2022-12-15T16:52:00;-0.20;99.90
57833;DHT22;43667;53.036;6.740;2022-12-15T16:54:27;-0.20;99.90
57833;DHT22;43667;53.036;6.740;2022-12-15T16:56:56;-0.20;99.90
57833;DHT22;43667;53.036;6.740;2022-12-15T16:59:23;-0.20;99.90
57833;DHT22;43667;53.036;6.740;2022-12-15T17:01:52;-0.10;99.90
57833;DHT22;43667;53.036;6.740;2022-12-15T17:04:17;-0.20;99.90
57833;DHT22;43667;53.036;6.740;2022-12-15T17:06:43;-0.20;99.90
57833;DHT22;43667;53.036;6.740;2022-12-15T17:09:20;-0.20;99.90
57833;DHT22;43667;53.036;6.740;2022-12-15T17:11:46;-0.10;99.90
57833;DHT22;43667;53.036;6.740;2022-12-15T17:14:12;-0.10;99.90
57833;DHT22;43667;53.036;6.740;2022-12-15T17:16:38;-0.10;99.90
57833;DHT22;43667;53.036;6.740;2022-12-15T17:19:03;-0.10;99.90
57833;DHT22;43667;53.036;6.740;2022-12-15T17:21:31;-0.10;99.90
57833;DHT22;43667;53.036;6.740;2022-12-15T17:24:03;-0.10;99.90
57833;DHT22;43667;53.036;6.740;2022-12-15T17:26:31;-0.10;99.90
57833;DHT22;43667;53.036;6.740;2022-12-15T17:29:05;-0.20;99.90
57833;DHT22;43667;53.036;6.740;2022-12-15T17:31:31;-0.10;99.90
57833;DHT22;43667;53.036;6.740;2022-12-15T17:33:57;-0.20;99.90
57833;DHT22;43667;53.036;6.740;2022-12-15T17:36:26;-0.20;99.90
57833;DHT22;43667;53.036;6.740;2022-12-15T17:38:55;-0.30;99.90
57833;DHT22;43667;53.036;6.740;2022-12-15T17:41:21;-0.40;99.90
57833;DHT22;43667;53.036;6.740;2022-12-15T17:43:47;-0.40;99.90
57833;DHT22;43667;53.036;6.740;2022-12-15T17:46:13;-0.50;99.90
57833;DHT22;43667;53.036;6.740;2022-12-15T17:48:38;-0.50;99.90
57833;DHT22;43667;53.036;6.740;2022-12-15T17:51:12;-0.50;99.90
57833;DHT22;43667;53.036;6.740;2022-12-15T17:53:39;-0.60;99.90
57833;DHT22;43667;53.036;6.740;2022-12-15T17:56:05;-0.60;99.90
57833;DHT22;43667;53.036;6.740;2022-12-15T17:58:31;-0.70;99.90
57833;DHT22;43667;53.036;6.740;2022-12-15T18:00:56;-0.70;99.90
57833;DHT22;43667;53.036;6.740;2022-12-15T18:03:22;-0.70;99.90